CFG2YP EBBR-EDDH
Flight info
| Callsign | CFG2YP |
|---|---|
| Flight time | N/A |
| Altitude | 32000 |
| Route | NIK L191 VICOT N873 SPY/N0455F330 N873 ANDIK M105 RIBSO RIBSO7A |
| Aircraft | B753/M-SDE2E3FGHIJ3J4J7RWXY/LB1 |
Departure
| Time | 2026-05-06 11:02 |
|---|---|
| Airport | Brussels Airport (EBBR) |
Arrival
| Time | N/A |
|---|---|
| Airport | Hamburg Helmut Schmidt Airport (EDDH) |
| Time | Latitude | Longitude | Altitude | Speed | Heading |
|---|---|---|---|---|---|
| 2026-05-06 11:02 | 51.06664 | 4.34940 | 9274 ft | 282 kts | 315° |
| 2026-05-06 11:02 | 51.08008 | 4.32679 | 10101 ft | 286 kts | 315° |
| 2026-05-06 11:02 | 51.09410 | 4.30323 | 10583 ft | 304 kts | 314° |
| 2026-05-06 11:03 | 51.10907 | 4.27812 | 10977 ft | 323 kts | 314° |
| 2026-05-06 11:03 | 51.12497 | 4.25141 | 11354 ft | 342 kts | 314° |
| 2026-05-06 11:03 | 51.14180 | 4.22312 | 11714 ft | 361 kts | 314° |
| 2026-05-06 11:03 | 51.15922 | 4.19392 | 12339 ft | 369 kts | 316° |
| 2026-05-06 11:04 | 51.17904 | 4.16774 | 13119 ft | 372 kts | 324° |
| 2026-05-06 11:04 | 51.19985 | 4.14328 | 13904 ft | 375 kts | 323° |
| 2026-05-06 11:04 | 51.22108 | 4.11822 | 14647 ft | 380 kts | 323° |
| 2026-05-06 11:04 | 51.24230 | 4.09317 | 15374 ft | 383 kts | 323° |
| 2026-05-06 11:05 | 51.26451 | 4.07049 | 15976 ft | 389 kts | 335° |
| 2026-05-06 11:05 | 51.29062 | 4.05709 | 16657 ft | 392 kts | 350° |
| 2026-05-06 11:05 | 51.31784 | 4.05415 | 17238 ft | 397 kts | 359° |
| 2026-05-06 11:05 | 51.34573 | 4.05359 | 17836 ft | 401 kts | 359° |
| 2026-05-06 11:06 | 51.37373 | 4.05287 | 18417 ft | 405 kts | 358° |
| 2026-05-06 11:06 | 51.40144 | 4.05227 | 18948 ft | 409 kts | 358° |
| 2026-05-06 11:06 | 51.43016 | 4.05163 | 19513 ft | 411 kts | 359° |
| 2026-05-06 11:06 | 51.45859 | 4.05215 | 20023 ft | 414 kts | 4° |
| 2026-05-06 11:07 | 51.48729 | 4.05999 | 20428 ft | 419 kts | 15° |
| 2026-05-06 11:07 | 51.51466 | 4.07607 | 20930 ft | 422 kts | 23° |
| 2026-05-06 11:07 | 51.54182 | 4.09574 | 21339 ft | 427 kts | 23° |
| 2026-05-06 11:07 | 51.56884 | 4.11540 | 21792 ft | 430 kts | 24° |
| 2026-05-06 11:08 | 51.59620 | 4.13552 | 22212 ft | 434 kts | 24° |
| 2026-05-06 11:08 | 51.62366 | 4.15577 | 22628 ft | 438 kts | 24° |
| 2026-05-06 11:08 | 51.65156 | 4.17651 | 23021 ft | 442 kts | 24° |
| 2026-05-06 11:08 | 51.67932 | 4.19715 | 23496 ft | 443 kts | 24° |
| 2026-05-06 11:09 | 51.70721 | 4.21792 | 23950 ft | 446 kts | 24° |
| 2026-05-06 11:09 | 51.73566 | 4.23916 | 24363 ft | 449 kts | 24° |
| 2026-05-06 11:09 | 51.76315 | 4.25975 | 24765 ft | 452 kts | 24° |
| 2026-05-06 11:09 | 51.79183 | 4.28124 | 25214 ft | 455 kts | 24° |
| 2026-05-06 11:10 | 51.82070 | 4.30295 | 25629 ft | 458 kts | 24° |
| 2026-05-06 11:10 | 51.84880 | 4.32408 | 26035 ft | 460 kts | 25° |
| 2026-05-06 11:10 | 51.87845 | 4.34641 | 26436 ft | 463 kts | 25° |
| 2026-05-06 11:10 | 51.90786 | 4.36860 | 26792 ft | 467 kts | 24° |
| 2026-05-06 11:11 | 51.93727 | 4.39083 | 27113 ft | 470 kts | 24° |
| 2026-05-06 11:11 | 51.96717 | 4.41345 | 27520 ft | 472 kts | 24° |
| 2026-05-06 11:11 | 51.99720 | 4.43620 | 27833 ft | 476 kts | 24° |
| 2026-05-06 11:11 | 52.02688 | 4.45873 | 28224 ft | 477 kts | 24° |
| 2026-05-06 11:12 | 52.05699 | 4.48161 | 28545 ft | 480 kts | 24° |
| 2026-05-06 11:12 | 52.08767 | 4.50497 | 28892 ft | 482 kts | 25° |
| 2026-05-06 11:12 | 52.11795 | 4.52804 | 29200 ft | 485 kts | 25° |
| 2026-05-06 11:12 | 52.14817 | 4.55111 | 29519 ft | 487 kts | 25° |
| 2026-05-06 11:13 | 52.17885 | 4.57457 | 29953 ft | 487 kts | 25° |
| 2026-05-06 11:13 | 52.20951 | 4.59805 | 30435 ft | 486 kts | 25° |
| 2026-05-06 11:13 | 52.23982 | 4.62130 | 30848 ft | 486 kts | 25° |
| 2026-05-06 11:13 | 52.27008 | 4.64455 | 31337 ft | 484 kts | 25° |
| 2026-05-06 11:14 | 52.30036 | 4.66785 | 31712 ft | 484 kts | 25° |
| 2026-05-06 11:14 | 52.33082 | 4.69131 | 31888 ft | 483 kts | 25° |
| 2026-05-06 11:14 | 52.36105 | 4.71464 | 31883 ft | 482 kts | 25° |
| 2026-05-06 11:15 | 52.42147 | 4.76136 | 31885 ft | 480 kts | 25° |
| 2026-05-06 11:15 | 52.48185 | 4.80819 | 31896 ft | 482 kts | 25° |
| 2026-05-06 11:15 | 52.51135 | 4.83330 | 32093 ft | 482 kts | 32° |
| 2026-05-06 11:16 | 52.53839 | 4.86544 | 32395 ft | 480 kts | 42° |
| 2026-05-06 11:16 | 52.56210 | 4.90434 | 32628 ft | 480 kts | 50° |
| 2026-05-06 11:16 | 52.58310 | 4.94613 | 32872 ft | 477 kts | 51° |
| 2026-05-06 11:17 | 52.62472 | 5.03075 | 32895 ft | 477 kts | 52° |
| 2026-05-06 11:17 | 52.66598 | 5.11630 | 32899 ft | 476 kts | 52° |
| 2026-05-06 11:18 | 52.70717 | 5.20251 | 32890 ft | 477 kts | 52° |
| 2026-05-06 11:18 | 52.74294 | 5.29495 | 32902 ft | 475 kts | 68° |
| 2026-05-06 11:19 | 52.76617 | 5.39660 | 32887 ft | 474 kts | 71° |
| 2026-05-06 11:19 | 52.78857 | 5.49881 | 32890 ft | 474 kts | 71° |
| 2026-05-06 11:20 | 52.81054 | 5.60071 | 32891 ft | 473 kts | 71° |
| 2026-05-06 11:20 | 52.83255 | 5.70368 | 32891 ft | 472 kts | 72° |
| 2026-05-06 11:21 | 52.85427 | 5.80604 | 32884 ft | 473 kts | 72° |
| 2026-05-06 11:21 | 52.87650 | 5.90853 | 32891 ft | 473 kts | 68° |
| 2026-05-06 11:22 | 52.90619 | 6.00578 | 32879 ft | 473 kts | 65° |
| 2026-05-06 11:22 | 52.93467 | 6.10109 | 32885 ft | 472 kts | 65° |
| 2026-05-06 11:23 | 52.96308 | 6.19811 | 32879 ft | 474 kts | 66° |
| 2026-05-06 11:23 | 52.99164 | 6.29672 | 32877 ft | 474 kts | 65° |
| 2026-05-06 11:24 | 53.02002 | 6.39532 | 32882 ft | 475 kts | 66° |
| 2026-05-06 11:24 | 53.04820 | 6.49378 | 32892 ft | 475 kts | 66° |
| 2026-05-06 11:25 | 53.07640 | 6.59272 | 32887 ft | 474 kts | 65° |
| 2026-05-06 11:25 | 53.10433 | 6.69111 | 32771 ft | 459 kts | 66° |
| 2026-05-06 11:26 | 53.12904 | 6.77856 | 32858 ft | 459 kts | 66° |
| 2026-05-06 11:26 | 53.15584 | 6.87379 | 32886 ft | 460 kts | 66° |
| 2026-05-06 11:27 | 53.18286 | 6.97022 | 32883 ft | 461 kts | 66° |
| 2026-05-06 11:27 | 53.20980 | 7.06668 | 32887 ft | 461 kts | 66° |
| 2026-05-06 11:27 | 53.22242 | 7.11201 | 32368 ft | 466 kts | 66° |
| 2026-05-06 11:28 | 53.23599 | 7.16083 | 31859 ft | 459 kts | 66° |
| 2026-05-06 11:28 | 53.24929 | 7.20881 | 31527 ft | 466 kts | 66° |
| 2026-05-06 11:28 | 53.26315 | 7.25897 | 31193 ft | 477 kts | 66° |
| 2026-05-06 11:28 | 53.27705 | 7.30931 | 30840 ft | 474 kts | 66° |
| 2026-05-06 11:29 | 53.29065 | 7.35864 | 30464 ft | 467 kts | 66° |
| 2026-05-06 11:29 | 53.30412 | 7.40766 | 30050 ft | 463 kts | 66° |
| 2026-05-06 11:29 | 53.31759 | 7.45676 | 29588 ft | 460 kts | 66° |
| 2026-05-06 11:29 | 53.33084 | 7.50522 | 29139 ft | 458 kts | 66° |
| 2026-05-06 11:30 | 53.34396 | 7.55323 | 28696 ft | 454 kts | 66° |
| 2026-05-06 11:30 | 53.35702 | 7.60116 | 28253 ft | 451 kts | 66° |
| 2026-05-06 11:30 | 53.37001 | 7.64894 | 27811 ft | 448 kts | 66° |
| 2026-05-06 11:30 | 53.38293 | 7.69655 | 27384 ft | 446 kts | 67° |
| 2026-05-06 11:31 | 53.39560 | 7.74332 | 26963 ft | 444 kts | 67° |
| 2026-05-06 11:31 | 53.40830 | 7.79031 | 26541 ft | 442 kts | 67° |
| 2026-05-06 11:31 | 53.42087 | 7.83692 | 26125 ft | 439 kts | 67° |
| 2026-05-06 11:31 | 53.43332 | 7.88316 | 25719 ft | 436 kts | 67° |
| 2026-05-06 11:32 | 53.44578 | 7.92952 | 25317 ft | 433 kts | 67° |
| 2026-05-06 11:32 | 53.45799 | 7.97509 | 24922 ft | 432 kts | 67° |
| 2026-05-06 11:32 | 53.47036 | 8.02132 | 24525 ft | 430 kts | 67° |
| 2026-05-06 11:32 | 53.48253 | 8.06689 | 24139 ft | 427 kts | 67° |
| 2026-05-06 11:33 | 53.49473 | 8.11267 | 23752 ft | 425 kts | 68° |
| 2026-05-06 11:33 | 53.50673 | 8.15779 | 23396 ft | 425 kts | 67° |
| 2026-05-06 11:33 | 53.51857 | 8.20241 | 23037 ft | 422 kts | 67° |
| 2026-05-06 11:33 | 53.53060 | 8.24783 | 22677 ft | 419 kts | 67° |
| 2026-05-06 11:34 | 53.54249 | 8.29278 | 22321 ft | 419 kts | 67° |
| 2026-05-06 11:34 | 53.55428 | 8.33747 | 21961 ft | 416 kts | 67° |
| 2026-05-06 11:34 | 53.56589 | 8.38156 | 21608 ft | 413 kts | 67° |
| 2026-05-06 11:34 | 53.57748 | 8.42566 | 21248 ft | 412 kts | 67° |
| 2026-05-06 11:35 | 53.58897 | 8.46944 | 20887 ft | 410 kts | 68° |
| 2026-05-06 11:35 | 53.60041 | 8.51311 | 20523 ft | 407 kts | 67° |
| 2026-05-06 11:35 | 53.61181 | 8.55675 | 20182 ft | 406 kts | 68° |
| 2026-05-06 11:35 | 53.62322 | 8.60052 | 19825 ft | 404 kts | 68° |
| 2026-05-06 11:36 | 53.63440 | 8.64343 | 19484 ft | 400 kts | 68° |
| 2026-05-06 11:36 | 53.64543 | 8.68592 | 19040 ft | 402 kts | 68° |
| 2026-05-06 11:36 | 53.65670 | 8.72937 | 18373 ft | 401 kts | 69° |
| 2026-05-06 11:36 | 53.66768 | 8.77174 | 17725 ft | 394 kts | 68° |
| 2026-05-06 11:37 | 53.67852 | 8.81380 | 17004 ft | 388 kts | 68° |
| 2026-05-06 11:37 | 53.68914 | 8.85504 | 16328 ft | 384 kts | 67° |
| 2026-05-06 11:37 | 53.69979 | 8.89641 | 15632 ft | 381 kts | 67° |
| 2026-05-06 11:37 | 53.71018 | 8.93685 | 15061 ft | 374 kts | 66° |
| 2026-05-06 11:38 | 53.72053 | 8.97722 | 14598 ft | 371 kts | 66° |
| 2026-05-06 11:38 | 53.73072 | 9.01700 | 14148 ft | 373 kts | 66° |
| 2026-05-06 11:38 | 53.74110 | 9.05762 | 13674 ft | 372 kts | 66° |
| 2026-05-06 11:38 | 53.75121 | 9.09725 | 13210 ft | 366 kts | 66° |
| 2026-05-06 11:39 | 53.76115 | 9.13625 | 12750 ft | 361 kts | 66° |
| 2026-05-06 11:39 | 53.77093 | 9.17472 | 12273 ft | 357 kts | 66° |
| 2026-05-06 11:39 | 53.78068 | 9.21313 | 11769 ft | 355 kts | 66° |
| 2026-05-06 11:39 | 53.79041 | 9.25156 | 11337 ft | 351 kts | 66° |
| 2026-05-06 11:40 | 53.79832 | 9.28971 | 10899 ft | 336 kts | 80° |
| 2026-05-06 11:40 | 53.79920 | 9.32770 | 10573 ft | 313 kts | 98° |
| 2026-05-06 11:40 | 53.79384 | 9.36195 | 10252 ft | 296 kts | 110° |
| 2026-05-06 11:40 | 53.78567 | 9.39339 | 9943 ft | 290 kts | 115° |
| 2026-05-06 11:41 | 53.77618 | 9.42369 | 9598 ft | 289 kts | 118° |
| 2026-05-06 11:41 | 53.76328 | 9.44928 | 9303 ft | 287 kts | 144° |
| 2026-05-06 11:41 | 53.74533 | 9.46203 | 9184 ft | 280 kts | 171° |
| 2026-05-06 11:41 | 53.72632 | 9.45987 | 8914 ft | 274 kts | 195° |
| 2026-05-06 11:42 | 53.70779 | 9.45411 | 8583 ft | 271 kts | 173° |
| 2026-05-06 11:42 | 53.68953 | 9.46139 | 8250 ft | 272 kts | 156° |
| 2026-05-06 11:42 | 53.67194 | 9.47344 | 7849 ft | 272 kts | 154° |
| 2026-05-06 11:42 | 53.65462 | 9.48543 | 7427 ft | 270 kts | 154° |
| 2026-05-06 11:43 | 53.63702 | 9.49742 | 7050 ft | 272 kts | 154° |
| 2026-05-06 11:43 | 53.61956 | 9.50923 | 6644 ft | 273 kts | 155° |
| 2026-05-06 11:43 | 53.60146 | 9.52129 | 6251 ft | 274 kts | 155° |
| 2026-05-06 11:44 | 53.56720 | 9.54364 | 5696 ft | 255 kts | 155° |
| 2026-05-06 11:44 | 53.55083 | 9.55403 | 5188 ft | 251 kts | 154° |
| 2026-05-06 11:44 | 53.53447 | 9.56452 | 4662 ft | 248 kts | 153° |
| 2026-05-06 11:44 | 53.51846 | 9.57488 | 4142 ft | 246 kts | 153° |
| 2026-05-06 11:45 | 53.50398 | 9.58828 | 3693 ft | 230 kts | 126° |
| 2026-05-06 11:45 | 53.49691 | 9.60998 | 3569 ft | 199 kts | 93° |
| 2026-05-06 11:45 | 53.49626 | 9.63203 | 3408 ft | 183 kts | 85° |
| 2026-05-06 11:45 | 53.49662 | 9.65272 | 3179 ft | 172 kts | 85° |
| 2026-05-06 11:46 | 53.49692 | 9.67242 | 2984 ft | 167 kts | 85° |
| 2026-05-06 11:46 | 53.49717 | 9.69207 | 2994 ft | 172 kts | 85° |
| 2026-05-06 11:46 | 53.49755 | 9.71246 | 2984 ft | 175 kts | 78° |
| 2026-05-06 11:46 | 53.50275 | 9.73033 | 3025 ft | 172 kts | 50° |
| 2026-05-06 11:47 | 53.51039 | 9.74578 | 2979 ft | 174 kts | 52° |
| 2026-05-06 11:47 | 53.51805 | 9.76179 | 3016 ft | 167 kts | 52° |
| 2026-05-06 11:47 | 53.52537 | 9.77682 | 2956 ft | 168 kts | 51° |
| 2026-05-06 11:47 | 53.53286 | 9.79213 | 2849 ft | 169 kts | 51° |
| 2026-05-06 11:48 | 53.53784 | 9.80232 | 2779 ft | 169 kts | 52° |